Time;durP1;ratioP1;P1;durP2;ratioP2;P2;SDS_P1;SDS_P2;PMS_P1;PMS_P2;Temp;Humidity;BMP_temperature;BMP_pressure;BME280_temperature;BME280_humidity;BME280_pressure;Samples;Min_cycle;Max_cycle;Signal;HPM_P1;HPM_P2
2023/03/02 00:02:00;;;;;;;66.90;59.70;;;;;;;-3.78;68.99;98643.72;107295;1276;23028;-87
2023/03/02 00:04:41;;;;;;;72.60;61.70;;;;;;;-3.67;68.63;98640.67;107357;1276;22650;-89
2023/03/02 00:07:13;;;;;;;77.50;66.10;;;;;;;-3.67;68.16;98639.98;107313;1276;22613;-87
2023/03/02 00:09:43;;;;;;;66.10;58.60;;;;;;;-3.70;68.36;98640.27;107439;1276;24533;-88
2023/03/02 00:12:12;;;;;;;75.00;63.80;;;;;;;-3.76;69.19;98647.51;107366;1276;24308;-89
2023/03/02 00:14:41;;;;;;;89.40;72.20;;;;;;;-3.85;68.97;98646.61;107515;1276;22629;-88
2023/03/02 00:17:09;;;;;;;87.80;70.20;;;;;;;-3.92;68.48;98649.91;107132;1276;24343;-88
2023/03/02 00:19:37;;;;;;;97.40;74.00;;;;;;;-3.94;68.25;98642.66;107280;1276;22729;-89
2023/03/02 00:22:05;;;;;;;88.70;67.30;;;;;;;-3.95;68.29;98643.59;107244;1276;25408;-89
2023/03/02 00:24:35;;;;;;;72.20;63.00;;;;;;;-3.93;68.20;98640.91;107238;1276;22667;-88
2023/03/02 00:27:03;;;;;;;76.40;64.70;;;;;;;-3.93;67.96;98639.65;107207;1276;22737;-88
2023/03/02 00:29:30;;;;;;;76.50;67.90;;;;;;;-3.93;67.85;98637.39;107316;1276;25422;-88
2023/03/02 00:31:58;;;;;;;83.90;67.10;;;;;;;-3.91;67.65;98638.91;107303;1276;23578;-87
2023/03/02 00:34:26;;;;;;;80.50;63.40;;;;;;;-3.93;67.18;98637.55;107519;1276;22602;-88
2023/03/02 00:36:56;;;;;;;78.30;68.20;;;;;;;-3.95;67.15;98637.52;107324;1276;22616;-89
2023/03/02 00:39:24;;;;;;;82.50;69.60;;;;;;;-4.02;67.11;98636.23;107407;1276;25447;-87
2023/03/02 00:41:52;;;;;;;97.00;75.10;;;;;;;-4.06;67.31;98641.86;107179;1276;22712;-88
2023/03/02 00:44:20;;;;;;;122.90;93.40;;;;;;;-4.07;67.37;98643.34;107092;1276;24319;-86
2023/03/02 00:46:48;;;;;;;93.60;76.00;;;;;;;-4.13;67.47;98643.65;106927;1276;25256;-86
2023/03/02 00:49:15;;;;;;;97.40;79.30;;;;;;;-4.21;67.36;98643.33;107163;1274;22517;-87
2023/03/02 00:51:43;;;;;;;81.70;72.80;;;;;;;-4.28;67.31;98640.45;107226;1276;23335;-85
2023/03/02 00:54:12;;;;;;;76.70;68.90;;;;;;;-4.32;67.56;98636.20;107173;1276;22583;-87
2023/03/02 00:56:41;;;;;;;81.20;66.20;;;;;;;-4.31;67.65;98635.59;107172;1265;24314;-85
2023/03/02 00:59:27;;;;;;;79.40;66.50;;;;;;;-4.37;67.39;98633.10;106824;1276;22518;-85
2023/03/02 01:02:01;;;;;;;70.80;62.40;;;;;;;-4.37;67.47;98632.45;107238;1276;25416;-86
2023/03/02 01:04:37;;;;;;;70.10;62.50;;;;;;;-4.42;67.58;98633.39;107137;1276;24380;-87
2023/03/02 01:07:12;;;;;;;84.50;75.60;;;;;;;-4.48;67.94;98627.13;107210;1276;22576;-87
2023/03/02 01:09:41;;;;;;;;;;;;;;;-4.54;68.36;98632.38;107235;1276;22518;-86
2023/03/02 01:12:10;;;;;;;74.60;65.20;;;;;;;-4.64;67.97;98630.67;107435;1276;22640;-87
2023/03/02 01:14:41;;;;;;;81.30;66.80;;;;;;;-4.65;68.12;98627.38;107369;1276;22744;-87
2023/03/02 01:17:11;;;;;;;100.70;73.30;;;;;;;-4.70;68.41;98624.45;107496;1276;22625;-86
2023/03/02 01:19:39;;;;;;;121.00;82.50;;;;;;;-4.73;68.67;98620.31;107651;1276;25254;-85
2023/03/02 01:22:08;;;;;;;140.30;82.90;;;;;;;-4.92;69.31;98600.79;108348;1276;22860;-85
2023/03/02 01:24:36;;;;;;;134.70;93.80;;;;;;;-4.84;69.31;98623.78;109335;1276;22220;-86
2023/03/02 01:27:04;;;;;;;79.20;70.10;;;;;;;-4.80;69.53;98621.73;110446;1276;22445;-85
2023/03/02 01:29:32;;;;;;;102.50;85.10;;;;;;;-4.73;69.55;98617.61;110558;1276;22548;-84
2023/03/02 01:32:00;;;;;;;78.20;69.30;;;;;;;-4.68;69.75;98617.11;110494;1276;22286;-85
2023/03/02 01:34:29;;;;;;;71.30;63.60;;;;;;;-4.71;71.14;98610.39;109661;1276;24214;-89
2023/03/02 01:36:57;;;;;;;84.10;74.60;;;;;;;-4.79;71.09;98608.64;107385;1276;22615;-86
2023/03/02 01:39:25;;;;;;;79.80;68.60;;;;;;;-4.83;70.77;98605.96;107246;1276;22672;-87
2023/03/02 01:41:54;;;;;;;88.10;75.10;;;;;;;-4.90;70.85;98601.73;107532;1276;24447;-88
2023/03/02 01:44:39;;;;;;;97.60;77.40;;;;;;;-4.98;70.46;98600.14;107641;1276;22529;-88
2023/03/02 01:47:31;;;;;;;90.60;74.70;;;;;;;-5.03;70.49;98599.09;107243;1276;22559;-88
2023/03/02 01:50:20;;;;;;;100.60;72.30;;;;;;;-5.05;70.13;98599.96;107208;1276;25338;-88
2023/03/02 01:52:50;;;;;;;100.60;72.90;;;;;;;-5.02;70.84;98595.47;107047;1276;22589;-87
2023/03/02 01:55:24;;;;;;;90.60;74.80;;;;;;;-5.04;71.16;98590.44;107011;1276;22607;-87
2023/03/02 01:57:54;;;;;;;73.50;63.80;;;;;;;-5.04;71.14;98584.86;106863;1276;22524;-88
2023/03/02 02:00:30;;;;;;;72.20;64.20;;;;;;;-5.05;71.62;98584.11;107366;1276;22783;-88
2023/03/02 02:03:15;;;;;;;65.70;58.80;;;;;;;-5.09;72.65;98580.88;107299;1276;22572;-87
2023/03/02 02:05:49;;;;;;;74.40;62.30;;;;;;;-5.17;73.24;98581.68;107307;1276;25642;-88
2023/03/02 02:08:17;;;;;;;58.30;52.00;;;;;;;-5.21;73.17;98578.44;107260;1276;24761;-86
2023/03/02 02:10:45;;;;;;;52.90;47.10;;;;;;;-5.19;74.14;98570.13;107185;1276;25265;-86
2023/03/02 02:13:13;;;;;;;52.30;46.60;;;;;;;-5.15;74.29;98565.30;107424;1259;23078;-87
2023/03/02 02:15:41;;;;;;;58.70;52.60;;;;;;;-5.13;73.84;98566.41;107531;1276;22636;-88
2023/03/02 02:18:09;;;;;;;54.60;48.60;;;;;;;-5.10;74.55;98566.66;108143;1276;22591;-86
2023/03/02 02:20:44;;;;;;;55.60;48.10;;;;;;;-5.12;74.41;98558.91;108152;1276;22572;-89
2023/03/02 02:23:19;;;;;;;;;;;;;;;-5.13;74.00;98563.10;107819;1276;24228;-87
2023/03/02 02:25:57;;;;;;;;;;;;;;;-5.15;73.18;98559.84;107626;1276;23165;-87
2023/03/02 02:28:34;;;;;;;47.30;42.60;;;;;;;-5.11;72.80;98559.34;107933;1276;25310;-87
2023/03/02 02:31:31;;;;;;;45.00;40.60;;;;;;;-4.97;72.77;98555.63;107749;1276;24864;-87
2023/03/02 02:34:10;;;;;;;52.60;47.60;;;;;;;-4.82;72.40;98551.94;107273;1276;25948;-88
2023/03/02 02:36:43;;;;;;;53.50;48.10;;;;;;;-4.73;72.36;98548.33;107298;1276;22524;-89
2023/03/02 02:39:20;;;;;;;;;;;;;;;-4.68;72.38;98550.97;107333;1276;24782;-88
2023/03/02 02:41:53;;;;;;;47.80;43.10;;;;;;;-4.74;72.63;98549.33;107252;1277;22725;-87
2023/03/02 02:44:21;;;;;;;45.80;41.30;;;;;;;-4.80;72.53;98546.79;107114;1276;22606;-87
2023/03/02 02:46:49;;;;;;;43.40;39.20;;;;;;;-4.83;72.46;98549.05;107421;1276;23166;-87
2023/03/02 02:49:38;;;;;;;44.00;39.50;;;;;;;-4.87;72.58;98546.73;107039;1276;24215;-86
2023/03/02 02:52:11;;;;;;;49.50;44.70;;;;;;;-4.94;72.70;98541.10;108148;1276;22793;-86
2023/03/02 02:54:44;;;;;;;44.70;40.50;;;;;;;-4.95;72.49;98537.70;108784;1276;22781;-86
2023/03/02 02:57:16;;;;;;;49.70;44.90;;;;;;;-4.85;72.32;98537.02;108899;1276;23473;-87
2023/03/02 02:59:52;;;;;;;46.70;42.00;;;;;;;-4.81;73.59;98531.48;108710;1276;25928;-87
2023/03/02 03:02:24;;;;;;;44.30;40.10;;;;;;;-4.87;74.10;98527.84;107362;1276;25069;-87
2023/03/02 03:05:02;;;;;;;46.90;42.60;;;;;;;-4.96;73.89;98532.43;107193;1276;22634;-89
2023/03/02 03:07:32;;;;;;;53.60;48.50;;;;;;;-5.05;74.32;98527.34;108738;1276;22532;-87
2023/03/02 03:10:22;;;;;;;53.80;48.50;;;;;;;-5.06;74.03;98527.55;110113;1276;22548;-87
2023/03/02 03:12:50;;;;;;;48.20;43.30;;;;;;;-4.94;73.50;98529.79;110356;1276;22606;-88
2023/03/02 03:15:22;;;;;;;48.20;43.70;;;;;;;-4.78;73.47;98527.55;108878;1276;23415;-91
2023/03/02 03:17:55;;;;;;;48.20;43.50;;;;;;;-4.58;73.25;98522.27;108595;1276;24333;-91
2023/03/02 03:20:27;;;;;;;45.80;41.60;;;;;;;-4.45;73.17;98517.14;108232;1275;22551;-91
2023/03/02 03:22:58;;;;;;;50.00;45.40;;;;;;;-4.38;73.06;98516.58;107774;1266;25741;-91
2023/03/02 03:25:27;;;;;;;52.50;47.40;;;;;;;-4.41;74.43;98514.35;107545;1276;22730;-87
2023/03/02 03:27:55;;;;;;;53.10;48.10;;;;;;;-4.54;74.24;98511.67;107678;1276;22572;-88
2023/03/02 03:30:23;;;;;;;93.70;84.70;;;;;;;-4.63;73.65;98513.16;108067;1276;22678;-86
2023/03/02 03:32:52;;;;;;;69.10;62.50;;;;;;;-4.65;73.64;98513.86;107403;1276;22562;-88
2023/03/02 03:35:20;;;;;;;52.60;47.50;;;;;;;-4.63;73.61;98509.76;107807;1276;24232;-90
2023/03/02 03:37:48;;;;;;;51.20;46.30;;;;;;;-4.56;73.50;98505.70;107236;1276;22558;-91
2023/03/02 03:40:18;;;;;;;46.30;41.70;;;;;;;-4.52;73.34;98505.30;107174;1276;22573;-88
2023/03/02 03:42:46;;;;;;;48.00;43.50;;;;;;;-4.43;73.12;98502.63;107452;1272;22724;-88
2023/03/02 03:45:14;;;;;;;52.20;47.10;;;;;;;-4.42;73.17;98495.69;107644;1276;22728;-86
2023/03/02 03:47:43;;;;;;;55.20;49.70;;;;;;;-4.41;73.19;98504.91;107327;1276;22520;-87
2023/03/02 03:50:11;;;;;;;67.50;60.20;;;;;;;-4.47;72.89;98504.17;107263;1276;24229;-89
2023/03/02 03:52:39;;;;;;;64.10;58.00;;;;;;;-4.49;73.09;98504.61;107240;1276;25325;-88
2023/03/02 03:55:27;;;;;;;69.20;62.40;;;;;;;-4.51;73.24;98499.81;107484;1276;22850;-87
2023/03/02 03:57:55;;;;;;;67.40;61.00;;;;;;;-4.50;73.15;98499.15;107804;1276;25515;-89
2023/03/02 04:00:24;;;;;;;70.50;63.20;;;;;;;-4.55;73.20;98502.55;107456;1276;24222;-89
2023/03/02 04:02:55;;;;;;;69.60;62.50;;;;;;;-4.67;73.06;98502.06;107347;1276;22646;-88
2023/03/02 04:05:24;;;;;;;85.40;76.90;;;;;;;-4.69;72.98;98506.05;107428;1270;27539;-87
2023/03/02 04:07:53;;;;;;;74.90;67.50;;;;;;;-4.66;73.09;98505.80;107604;1276;22817;-86
2023/03/02 04:10:23;;;;;;;63.00;56.80;;;;;;;-4.60;73.12;98512.23;107628;1276;22663;-89
2023/03/02 04:12:53;;;;;;;65.40;59.20;;;;;;;-4.54;73.26;98504.71;107435;1276;22589;-91
2023/03/02 04:15:22;;;;;;;64.00;57.50;;;;;;;-4.51;73.17;98505.06;107757;1276;22744;-90
2023/03/02 04:19:31;;;;;;;60.30;54.60;;;;;;;-4.65;73.02;98503.36;107541;1281;25211;-91
2023/03/02 04:24:00;;;;;;;56.70;51.20;;;;;;;-4.80;73.23;98502.38;107448;1283;23106;-88
2023/03/02 04:27:53;;;;;;;80.50;73.70;;;;;;;-4.84;73.29;98497.23;106995;1285;23339;-90
2023/03/02 04:30:25;;;;;;;57.60;52.10;;;;;;;-4.83;73.28;98493.69;106866;1285;22642;-89
2023/03/02 04:32:56;;;;;;;53.00;47.70;;;;;;;-4.86;73.17;98497.05;106721;1285;22798;-89
2023/03/02 04:35:27;;;;;;;54.20;48.80;;;;;;;-4.89;73.23;98496.85;106809;1282;22828;-88
2023/03/02 04:37:55;;;;;;;80.80;72.60;;;;;;;-4.92;73.18;98496.65;107237;1282;22524;-89
2023/03/02 04:40:23;;;;;;;62.50;56.50;;;;;;;-4.90;73.30;98496.76;107244;1280;22546;-87
2023/03/02 04:42:51;;;;;;;56.00;50.70;;;;;;;-4.88;73.43;98490.23;107130;1281;22661;-89
2023/03/02 04:45:19;;;;;;;58.90;53.00;;;;;;;-4.91;74.55;98484.48;107122;1276;22604;-87
2023/03/02 04:47:47;;;;;;;69.20;62.90;;;;;;;-4.95;74.18;98482.23;107293;1276;24757;-88
2023/03/02 04:50:15;;;;;;;58.80;53.00;;;;;;;-5.02;74.14;98481.77;107240;1276;25896;-89
2023/03/02 04:52:43;;;;;;;57.00;51.20;;;;;;;-5.05;74.04;98481.27;107281;1276;22603;-86
2023/03/02 04:55:19;;;;;;;58.00;52.10;;;;;;;-5.02;74.00;98478.95;107945;1276;25574;-89
2023/03/02 04:57:48;;;;;;;51.30;46.20;;;;;;;-4.96;74.10;98474.98;107296;1276;22599;-89
2023/03/02 05:00:19;;;;;;;52.70;47.10;;;;;;;-4.98;74.35;98474.63;107516;1276;25334;-86
2023/03/02 05:02:47;;;;;;;55.10;49.60;;;;;;;-5.04;75.00;98477.40;107346;1276;25421;-87
2023/03/02 05:05:20;;;;;;;57.80;51.80;;;;;;;-5.09;74.82;98480.98;107483;1276;22558;-91
2023/03/02 05:07:49;;;;;;;102.20;91.50;;;;;;;-5.11;74.71;98488.10;107769;1276;22573;-90
2023/03/02 05:10:19;;;;;;;67.20;60.70;;;;;;;-5.13;74.58;98488.33;107370;1277;22791;-90
2023/03/02 05:12:56;;;;;;;58.60;52.70;;;;;;;-5.14;74.47;98489.52;107625;1277;25584;-88
2023/03/02 05:15:28;;;;;;;57.20;51.00;;;;;;;-5.14;74.75;98493.82;107214;1259;22733;-86
2023/03/02 05:22:13;;;;;;;54.20;48.70;;;;;;;-5.13;74.62;98494.02;108642;1276;22538;-88
2023/03/02 05:24:41;;;;;;;56.00;49.60;;;;;;;-5.06;74.54;98493.10;108415;1276;22792;-91
2023/03/02 05:27:09;;;;;;;58.20;52.40;;;;;;;-4.98;74.35;98496.05;107540;1277;23897;-90
2023/03/02 05:29:38;;;;;;;65.10;58.00;;;;;;;-4.95;74.89;98496.51;107393;1277;22659;-91
2023/03/02 05:32:09;;;;;;;63.40;57.00;;;;;;;-4.98;75.52;98494.96;108189;1276;25262;-86
2023/03/02 05:34:37;;;;;;;65.50;58.40;;;;;;;-5.03;76.54;98495.52;107367;1257;22538;-86
2023/03/02 05:37:05;;;;;;;72.80;65.30;;;;;;;-5.09;75.94;98498.55;107176;1276;22655;-87
2023/03/02 05:39:33;;;;;;;101.20;83.80;;;;;;;-5.16;75.71;98497.21;107025;1276;23905;-85
2023/03/02 05:42:01;;;;;;;66.90;60.10;;;;;;;-5.20;75.71;98504.47;107251;1276;22829;-85
2023/03/02 05:44:31;;;;;;;62.20;55.50;;;;;;;-5.20;75.73;98503.69;107001;1277;24309;-87
2023/03/02 05:47:04;;;;;;;;;;;;;;;-5.18;76.09;98499.64;107255;1277;22526;-87
2023/03/02 05:49:32;;;;;;;63.80;53.90;;;;;;;-5.17;75.82;98500.04;107157;1277;22516;-79
2023/03/02 05:55:45;;;;;;;66.70;59.60;;;;;;;-5.05;75.88;98500.98;107182;1277;22533;-82
2023/03/02 05:58:17;;;;;;;67.80;60.90;;;;;;;-4.96;76.07;98503.32;107041;1277;22636;-90
2023/03/02 06:00:47;;;;;;;75.90;68.10;;;;;;;-4.90;76.16;98505.01;107071;1277;22728;-89
2023/03/02 06:03:15;;;;;;;72.00;64.50;;;;;;;-4.87;76.09;98507.11;107623;1277;25418;-89
2023/03/02 06:05:49;;;;;;;68.00;61.10;;;;;;;-4.79;76.10;98511.05;107102;1277;26545;-91
2023/03/02 06:08:20;;;;;;;67.80;60.90;;;;;;;-4.72;76.16;98507.23;107275;1277;23005;-90
2023/03/02 06:10:49;;;;;;;64.80;58.00;;;;;;;-4.59;76.26;98504.67;107368;1277;22581;-91
2023/03/02 06:13:17;;;;;;;62.00;55.30;;;;;;;-4.45;76.25;98504.72;107409;1277;25307;-90
2023/03/02 06:15:45;;;;;;;58.80;52.90;;;;;;;-4.31;76.37;98508.90;107564;1277;24339;-89
2023/03/02 06:18:14;;;;;;;64.40;57.90;;;;;;;-4.17;76.40;98509.24;109335;1275;22590;-90
2023/03/02 06:20:42;;;;;;;69.10;57.60;;;;;;;-4.00;76.49;98510.90;109981;1276;22159;-90
2023/03/02 06:23:10;;;;;;;68.90;61.80;;;;;;;-3.86;76.40;98513.41;110042;1266;22662;-89
2023/03/02 06:25:42;;;;;;;71.60;64.50;;;;;;;-3.71;76.67;98511.70;108069;1275;22515;-89
2023/03/02 06:28:10;;;;;;;78.90;70.80;;;;;;;-3.58;76.55;98514.39;107407;1276;22515;-89
2023/03/02 06:30:38;;;;;;;73.50;65.80;;;;;;;-3.48;76.57;98511.98;107308;1276;23258;-89
2023/03/02 06:33:07;;;;;;;73.90;65.80;;;;;;;-3.38;76.55;98512.61;108242;1276;22483;-91
2023/03/02 06:35:35;;;;;;;74.60;66.80;;;;;;;-3.24;76.80;98511.55;107150;1276;25591;-91
2023/03/02 06:38:04;;;;;;;69.70;62.80;;;;;;;-3.10;76.79;98510.82;107198;1277;22682;-90
2023/03/02 06:40:32;;;;;;;78.00;69.70;;;;;;;-2.97;76.59;98510.36;107273;1276;25420;-90
2023/03/02 06:43:00;;;;;;;81.60;72.90;;;;;;;-2.81;76.47;98508.86;109633;1277;22627;-89
2023/03/02 06:45:32;;;;;;;121.10;88.40;;;;;;;-2.61;76.54;98514.52;109812;1277;22552;-90
2023/03/02 06:48:01;;;;;;;114.50;90.80;;;;;;;-2.43;76.51;98519.73;110256;1276;22235;-87
2023/03/02 06:50:29;;;;;;;122.20;89.30;;;;;;;-2.27;76.64;98517.48;110470;1277;22548;-87
2023/03/02 06:57:14;;;;;;;175.10;107.00;;;;;;;-1.96;76.41;98527.11;110491;1277;22601;-90
2023/03/02 07:00:16;;;;;;;389.20;172.90;;;;;;;-1.87;76.38;98527.50;109000;1277;22600;-90
2023/03/02 07:02:45;;;;;;;504.30;261.10;;;;;;;-1.76;76.31;98525.52;107549;1277;22511;-89
2023/03/02 07:05:13;;;;;;;429.70;217.50;;;;;;;-1.69;76.51;98522.98;107430;1276;25284;-90
2023/03/02 07:07:42;;;;;;;416.20;199.40;;;;;;;-1.59;76.39;98524.90;107087;1276;22519;-90
2023/03/02 07:10:12;;;;;;;331.50;166.40;;;;;;;-1.49;76.38;98525.45;107284;1275;22529;-89
2023/03/02 07:12:41;;;;;;;273.60;139.00;;;;;;;-1.37;76.22;98531.83;107015;1276;22797;-89
2023/03/02 07:19:17;;;;;;;191.90;118.60;;;;;;;-0.98;76.18;98523.34;107342;1276;23889;-90
2023/03/02 07:21:45;;;;;;;205.40;132.10;;;;;;;-0.85;76.38;98520.69;107421;1276;23960;-89
2023/03/02 07:24:14;;;;;;;177.70;117.20;;;;;;;-0.74;76.36;98527.28;107258;1276;22517;-90
2023/03/02 07:26:42;;;;;;;123.20;93.00;;;;;;;-0.63;76.40;98526.00;107330;1276;25281;-90
2023/03/02 07:29:11;;;;;;;108.90;87.80;;;;;;;-0.53;76.57;98519.69;107304;1276;24586;-89
2023/03/02 07:31:39;;;;;;;101.30;82.80;;;;;;;-0.42;76.50;98517.89;107940;1276;22551;-89
2023/03/02 07:34:07;;;;;;;147.30;96.40;;;;;;;-0.31;76.47;98518.88;108211;1276;22668;-90
2023/03/02 07:36:35;;;;;;;133.00;94.50;;;;;;;-0.20;76.19;98519.70;107626;1272;24995;-90
2023/03/02 07:39:05;;;;;;;125.60;90.60;;;;;;;-0.10;76.20;98517.52;107464;1276;22551;-89
2023/03/02 07:41:34;;;;;;;133.10;93.60;;;;;;;0.02;76.24;98518.04;107167;1276;25310;-89
2023/03/02 07:44:02;;;;;;;141.90;97.20;;;;;;;0.13;76.22;98516.09;107141;1256;22528;-90
2023/03/02 07:46:31;;;;;;;139.10;96.70;;;;;;;0.27;76.03;98520.54;107313;1276;23967;-90
2023/03/02 07:48:59;;;;;;;154.40;107.20;;;;;;;0.41;75.93;98520.10;107359;1275;22556;-89
2023/03/02 07:51:27;;;;;;;139.70;98.80;;;;;;;0.56;75.92;98523.54;107136;1276;24777;-91
2023/03/02 07:53:55;;;;;;;97.60;85.00;;;;;;;0.71;75.94;98523.66;108356;1276;22827;-89
2023/03/02 07:56:23;;;;;;;87.20;78.00;;;;;;;0.86;75.91;98523.82;108881;1276;23031;-89
2023/03/02 07:58:51;;;;;;;80.80;72.50;;;;;;;1.03;75.94;98521.55;109217;1276;22532;-89
2023/03/02 08:01:21;;;;;;;75.50;67.40;;;;;;;1.22;75.72;98516.67;108338;1276;25272;-90
2023/03/02 08:03:49;;;;;;;63.00;56.30;;;;;;;1.43;75.94;98518.65;107496;1275;22620;-90
2023/03/02 08:06:18;;;;;;;58.90;53.30;;;;;;;1.65;75.69;98517.54;107244;1275;22526;-91
2023/03/02 08:08:46;;;;;;;55.40;49.50;;;;;;;1.82;75.76;98508.56;107733;1276;22512;-92
2023/03/02 08:11:17;;;;;;;53.30;48.20;;;;;;;2.04;75.58;98513.84;107209;1277;24058;-91
2023/03/02 08:13:45;;;;;;;50.70;45.40;;;;;;;2.22;75.61;98513.48;107426;1276;22531;-90
2023/03/02 08:16:15;;;;;;;52.20;45.20;;;;;;;2.38;75.62;98514.67;107283;1276;22571;-90
2023/03/02 08:18:43;;;;;;;49.90;44.80;;;;;;;2.56;75.32;98514.02;107558;1276;25418;-91
2023/03/02 08:21:20;;;;;;;49.10;44.00;;;;;;;2.71;74.99;98512.97;107452;1276;22521;-91
2023/03/02 08:23:49;;;;;;;44.80;40.40;;;;;;;2.84;74.46;98514.57;107751;1276;22539;-90
2023/03/02 08:26:19;;;;;;;43.90;39.30;;;;;;;2.94;73.42;98508.60;107151;1276;22538;-91
2023/03/02 08:28:47;;;;;;;43.60;38.90;;;;;;;3.07;73.33;98509.79;107337;1276;22521;-90
2023/03/02 08:31:15;;;;;;;41.80;37.60;;;;;;;3.21;73.13;98511.02;107584;1276;22649;-92
2023/03/02 08:33:44;;;;;;;42.90;38.90;;;;;;;3.34;73.27;98504.69;107455;1276;22606;-90
2023/03/02 08:36:16;;;;;;;42.70;38.30;;;;;;;3.45;72.75;98501.63;107225;1276;25309;-89
2023/03/02 08:38:46;;;;;;;41.50;37.50;;;;;;;3.55;72.46;98502.63;107355;1276;22548;-92
2023/03/02 08:41:18;;;;;;;40.20;36.40;;;;;;;3.64;71.85;98499.97;107243;1276;22552;-92
2023/03/02 08:43:48;;;;;;;39.30;35.10;;;;;;;3.73;71.98;98496.65;107265;1269;22639;-93
2023/03/02 08:46:18;;;;;;;41.10;36.80;;;;;;;3.84;71.46;98496.48;107428;1276;25420;-92
2023/03/02 08:48:47;;;;;;;39.80;35.70;;;;;;;3.94;71.23;98497.40;107458;1277;22653;-92
2023/03/02 08:51:20;;;;;;;39.50;35.50;;;;;;;4.05;70.65;98493.01;107182;1276;24544;-92
2023/03/02 08:53:50;;;;;;;42.40;38.00;;;;;;;4.14;70.08;98492.35;107229;1276;23093;-92
2023/03/02 08:56:24;;;;;;;49.60;38.10;;;;;;;4.25;70.49;98489.85;107422;1266;24420;-92
2023/03/02 08:58:55;;;;;;;40.80;36.70;;;;;;;4.34;69.65;98492.61;107816;1272;22517;-93
2023/03/02 09:01:28;;;;;;;40.90;36.60;;;;;;;4.42;69.53;98486.81;107425;1276;24161;-92
2023/03/02 09:03:59;;;;;;;41.20;35.50;;;;;;;4.51;68.94;98491.21;107684;1276;23089;-93
2023/03/02 09:06:29;;;;;;;43.30;38.90;;;;;;;4.59;67.62;98486.70;107664;1275;25281;-91
2023/03/02 09:08:59;;;;;;;42.50;38.20;;;;;;;4.69;67.94;98488.52;107327;1276;25412;-92
2023/03/02 09:11:28;;;;;;;46.10;37.20;;;;;;;4.79;68.17;98492.55;107668;1275;23165;-93
2023/03/02 09:13:56;;;;;;;40.90;36.90;;;;;;;4.87;67.18;98489.85;107708;1276;22532;-92
2023/03/02 09:16:24;;;;;;;42.10;37.50;;;;;;;4.95;66.51;98490.96;109919;1276;22559;-93
2023/03/02 09:18:54;;;;;;;42.70;38.20;;;;;;;5.03;66.00;98491.66;110092;1276;22536;-91
2023/03/02 09:21:23;;;;;;;40.20;36.10;;;;;;;5.13;65.38;98488.23;110198;1276;22601;-92
2023/03/02 09:23:54;;;;;;;40.60;36.60;;;;;;;5.23;65.62;98488.22;108930;1276;25201;-92
2023/03/02 09:26:24;;;;;;;39.20;34.90;;;;;;;5.31;64.44;98484.45;110396;1276;22590;-88
2023/03/02 09:28:55;;;;;;;37.20;33.40;;;;;;;5.42;63.33;98486.56;110503;1276;22354;-91
2023/03/02 09:31:23;;;;;;;35.00;31.30;;;;;;;5.52;62.82;98482.92;110352;1277;23248;-90
2023/03/02 09:33:52;;;;;;;33.10;29.30;;;;;;;5.63;63.55;98483.95;110318;1276;22538;-89
2023/03/02 09:36:23;;;;;;;33.50;29.90;;;;;;;5.77;62.94;98484.14;110394;1277;25485;-88
2023/03/02 09:38:52;;;;;;;34.70;31.10;;;;;;;5.84;61.88;98480.40;110513;1276;22574;-88
2023/03/02 09:41:20;;;;;;;30.60;27.50;;;;;;;5.92;62.33;98479.48;110226;1276;22554;-91
2023/03/02 09:44:08;;;;;;;33.80;30.00;;;;;;;5.99;62.38;98478.22;108346;1276;23836;-90
2023/03/02 09:46:45;;;;;;;33.00;28.80;;;;;;;6.10;62.58;98482.42;108702;1276;24210;-90
2023/03/02 09:49:29;;;;;;;31.20;28.20;;;;;;;6.21;62.51;98478.29;108350;1276;22535;-91
2023/03/02 09:52:39;;;;;;;35.80;29.10;;;;;;;6.29;61.46;98478.02;108571;1276;22816;-91
2023/03/02 10:00:05;;;;;;;30.20;26.80;;;;;;;6.48;60.76;98465.42;107558;1260;24269;-89
2023/03/02 10:03:17;;;;;;;29.70;26.80;;;;;;;6.57;59.33;98471.70;107860;1276;22557;-90
2023/03/02 10:05:55;;;;;;;27.60;24.90;;;;;;;6.66;57.64;98466.77;107612;1277;22511;-93
2023/03/02 10:08:28;;;;;;;26.90;24.30;;;;;;;6.73;55.10;98465.14;107836;1276;22532;-92
2023/03/02 10:11:12;;;;;;;31.00;23.70;;;;;;;6.81;56.53;98464.33;107696;1276;25365;-93
2023/03/02 10:13:52;;;;;;;26.30;23.50;;;;;;;6.94;55.93;98461.12;107476;1277;25265;-92
2023/03/02 10:16:36;;;;;;;25.40;23.00;;;;;;;7.04;56.65;98460.48;107485;1270;24269;-91
2023/03/02 10:19:24;;;;;;;27.30;24.40;;;;;;;7.09;53.88;98457.65;107601;1272;22531;-92
2023/03/02 10:22:27;;;;;;;27.20;24.40;;;;;;;7.13;54.88;98453.81;107230;1276;238678;-92
2023/03/02 10:24:59;;;;;;;27.40;24.50;;;;;;;7.18;53.04;98452.61;107342;1277;24276;-91
2023/03/02 10:27:38;;;;;;;24.60;20.80;;;;;;;7.26;54.44;98450.85;107262;1277;25334;-91
2023/03/02 10:34:23;;;;;;;24.80;22.20;;;;;;;7.46;52.11;98444.52;107534;1277;24203;-90
2023/03/02 10:36:51;;;;;;;27.40;24.30;;;;;;;7.51;52.05;98438.11;107851;1277;22521;-91
2023/03/02 10:48:55;;;;;;;28.10;25.10;;;;;;;7.82;52.09;98428.34;107666;1276;24191;-91
2023/03/02 10:51:29;;;;;;;25.50;22.90;;;;;;;7.97;50.55;98425.75;107472;1260;23211;-91
2023/03/02 10:54:09;;;;;;;27.60;24.60;;;;;;;8.05;51.10;98419.58;107240;1276;22620;-93
2023/03/02 10:56:40;;;;;;;34.40;31.00;;;;;;;8.16;49.76;98419.36;107803;1269;22869;-91
2023/03/02 10:59:39;;;;;;;30.60;27.50;;;;;;;8.25;50.01;98417.90;107637;1276;25322;-91
2023/03/02 11:02:17;;;;;;;26.30;23.60;;;;;;;8.36;50.78;98410.05;107410;1276;24238;-91
2023/03/02 11:04:45;;;;;;;26.50;23.90;;;;;;;8.45;50.60;98407.11;107396;1277;23380;-91
2023/03/02 11:07:19;;;;;;;26.80;23.00;;;;;;;8.57;51.37;98403.47;107191;1277;22637;-90
2023/03/02 11:10:00;;;;;;;25.50;22.80;;;;;;;8.61;50.39;98400.61;107505;1277;23852;-91
2023/03/02 11:12:30;;;;;;;24.00;21.50;;;;;;;8.70;50.72;98396.82;107332;1277;22559;-92
2023/03/02 11:15:36;;;;;;;24.90;22.30;;;;;;;8.76;48.72;98398.46;107380;1277;22584;-91
2023/03/02 11:18:24;;;;;;;23.70;21.20;;;;;;;8.86;49.05;98394.52;107303;1277;22535;-92
2023/03/02 11:21:16;;;;;;;23.90;21.40;;;;;;;8.93;48.65;98390.40;107331;1277;23020;-91
2023/03/02 11:23:50;;;;;;;22.20;19.90;;;;;;;9.04;49.08;98381.86;107096;1256;22659;-91
2023/03/02 11:26:29;;;;;;;23.50;21.10;;;;;;;9.12;48.65;98381.65;107140;1277;23570;-91
2023/03/02 11:29:03;;;;;;;24.10;21.90;;;;;;;9.27;49.52;98382.48;107333;1276;25345;-91
2023/03/02 11:31:40;;;;;;;24.40;21.90;;;;;;;9.42;48.79;98379.05;107178;1276;22654;-91
2023/03/02 11:34:19;;;;;;;25.10;21.50;;;;;;;9.47;47.60;98375.96;107293;1276;24307;-89
2023/03/02 11:37:20;;;;;;;27.00;24.40;;;;;;;9.45;45.87;98374.89;107776;1276;25437;-89
2023/03/02 11:39:48;;;;;;;23.30;21.20;;;;;;;9.39;47.61;98372.52;108067;1260;22587;-91
2023/03/02 11:42:37;;;;;;;23.90;21.60;;;;;;;9.50;47.57;98368.13;107466;1277;25291;-91
2023/03/02 11:46:05;;;;;;;25.70;23.10;;;;;;;9.67;46.98;98365.00;107421;1277;22527;-90
2023/03/02 11:48:54;;;;;;;25.50;22.80;;;;;;;9.79;45.66;98357.30;107393;1277;22730;-91
2023/03/02 11:51:27;;;;;;;26.10;23.40;;;;;;;9.90;46.03;98356.14;107279;1277;25332;-91
2023/03/02 11:54:39;;;;;;;26.70;22.70;;;;;;;10.05;46.66;98350.45;107275;1276;25412;-91
2023/03/02 11:57:24;;;;;;;25.10;22.70;;;;;;;10.24;46.35;98346.16;107253;1276;22550;-91
2023/03/02 11:59:55;;;;;;;25.20;22.80;;;;;;;10.41;46.64;98342.09;107424;1276;22594;-90
2023/03/02 12:02:25;;;;;;;25.60;22.90;;;;;;;10.59;46.21;98336.55;107433;1276;26016;-93
2023/03/02 12:05:25;;;;;;;25.30;22.70;;;;;;;10.67;45.63;98332.09;107382;1276;25252;-91
2023/03/02 12:08:06;;;;;;;28.00;25.30;;;;;;;10.77;44.37;98327.48;110476;1276;22637;-90
2023/03/02 12:10:39;;;;;;;26.00;23.30;;;;;;;10.85;44.48;98325.94;110499;1276;22263;-88
2023/03/02 12:13:12;;;;;;;25.90;23.40;;;;;;;10.93;43.67;98328.35;110070;1276;23094;-90
2023/03/02 12:15:46;;;;;;;27.90;23.40;;;;;;;11.08;45.20;98323.27;110411;1276;22563;-89
2023/03/02 12:18:45;;;;;;;26.90;24.00;;;;;;;11.29;43.38;98320.41;110476;1276;22339;-91